Time;durP1;ratioP1;P1;durP2;ratioP2;P2;SDS_P1;SDS_P2;PMS_P1;PMS_P2;Temp;Humidity;BMP_temperature;BMP_pressure;BME280_temperature;BME280_humidity;BME280_pressure;Samples;Min_cycle;Max_cycle;Signal;HPM_P1;HPM_P2
2022/03/25 00:01:00;;;;;;;3.63;2.30;;;;;;;-148.56;100.00;61375.16;4971485;28;20035;-34
2022/03/25 00:03:26;;;;;;;3.53;2.53;;;;;;;-148.56;100.00;61375.16;4969838;28;20081;-33
2022/03/25 00:05:52;;;;;;;3.97;2.40;;;;;;;-148.56;100.00;61375.16;4974868;28;20026;-34
2022/03/25 00:08:17;;;;;;;7.28;2.35;;;;;;;-148.56;100.00;61375.16;4973165;28;20065;-28
2022/03/25 00:10:43;;;;;;;2.67;2.30;;;;;;;-148.56;100.00;61375.16;4969127;28;20720;-32
2022/03/25 00:13:09;;;;;;;3.08;2.17;;;;;;;-148.56;100.00;61375.16;4968260;28;20134;-35
2022/03/25 00:15:35;;;;;;;3.78;2.38;;;;;;;-148.56;100.00;61375.16;4969812;28;20030;-30
2022/03/25 00:18:00;;;;;;;4.70;2.22;;;;;;;-148.56;100.00;61375.16;4967151;28;20038;-32
2022/03/25 00:20:25;;;;;;;3.20;2.30;;;;;;;-148.56;100.00;61375.16;4964448;28;20035;-31
2022/03/25 00:22:51;;;;;;;5.50;2.90;;;;;;;-148.56;100.00;61375.16;4970423;28;20091;-31
2022/03/25 00:25:17;;;;;;;3.67;2.20;;;;;;;-148.56;100.00;61375.16;4971702;28;20046;-32
2022/03/25 00:27:42;;;;;;;2.80;2.00;;;;;;;-148.56;100.00;61375.16;4973005;28;20469;-31
2022/03/25 00:30:08;;;;;;;3.97;2.30;;;;;;;-148.56;100.00;61375.16;4971492;28;20026;-33
2022/03/25 00:32:35;;;;;;;3.53;2.42;;;;;;;-148.56;100.00;61375.16;4934429;28;20030;-27
2022/03/25 00:35:00;;;;;;;5.95;2.50;;;;;;;-148.56;100.00;61375.16;4970246;28;20046;-31
2022/03/25 00:37:26;;;;;;;4.85;2.33;;;;;;;-148.56;100.00;61375.16;4970088;28;20039;-30
2022/03/25 00:39:52;;;;;;;2.85;2.10;;;;;;;-148.56;100.00;61375.16;4971504;28;20393;-36
2022/03/25 00:42:17;;;;;;;3.33;2.17;;;;;;;-148.56;100.00;61375.16;4972019;28;20034;-28
2022/03/25 00:44:44;;;;;;;4.53;2.50;;;;;;;-148.56;100.00;61375.16;4962657;28;20649;-32
2022/03/25 00:47:09;;;;;;;4.95;2.10;;;;;;;-148.56;100.00;61375.16;4969356;28;20031;-30
2022/03/25 00:49:35;;;;;;;3.22;2.08;;;;;;;-148.56;100.00;61375.16;4970785;28;20397;-33
2022/03/25 00:52:00;;;;;;;2.42;2.08;;;;;;;-148.56;100.00;61375.16;4970104;28;20932;-32
2022/03/25 00:54:27;;;;;;;4.53;2.08;;;;;;;-148.56;100.00;61375.16;4969970;28;20788;-30
2022/03/25 00:56:52;;;;;;;4.47;2.00;;;;;;;-148.56;100.00;61375.16;4970553;28;20034;-31
2022/03/25 00:59:18;;;;;;;4.88;1.80;;;;;;;-148.56;100.00;61375.16;4971222;28;20030;-30
2022/03/25 01:01:43;;;;;;;3.53;2.10;;;;;;;-148.56;100.00;61375.16;4969331;28;20042;-34
2022/03/25 01:04:09;;;;;;;3.60;2.10;;;;;;;-148.56;100.00;61375.16;4967782;28;20031;-33
2022/03/25 01:06:35;;;;;;;2.88;2.22;;;;;;;-148.56;100.00;61375.16;4971049;28;20022;-31
2022/03/25 01:09:03;;;;;;;2.78;1.95;;;;;;;-148.56;100.00;61375.16;4972263;28;20469;-34
2022/03/25 01:11:28;;;;;;;3.22;2.22;;;;;;;-148.56;100.00;61375.16;4969912;28;20421;-39
2022/03/25 01:13:54;;;;;;;3.33;1.98;;;;;;;-148.56;100.00;61375.16;4966362;28;20068;-34
2022/03/25 01:16:20;;;;;;;3.22;2.10;;;;;;;-148.56;100.00;61375.16;4969066;28;20480;-32
2022/03/25 01:18:45;;;;;;;2.78;1.90;;;;;;;-148.56;100.00;61375.16;4971518;28;20038;-34
2022/03/25 01:21:10;;;;;;;2.83;1.98;;;;;;;-148.56;100.00;61375.16;4971190;28;20062;-33
2022/03/25 01:23:36;;;;;;;2.72;1.80;;;;;;;-148.56;100.00;61375.16;4971669;28;20031;-31
2022/03/25 01:26:03;;;;;;;3.67;1.90;;;;;;;-148.56;100.00;61375.16;4968109;28;20732;-30
2022/03/25 01:28:34;;;;;;;2.97;2.13;;;;;;;-148.56;100.00;61375.16;4952727;28;20022;-29
2022/03/25 01:31:00;;;;;;;3.97;2.30;;;;;;;-148.56;100.00;61375.16;4967732;28;20061;-33
2022/03/25 01:33:27;;;;;;;2.40;2.20;;;;;;;-148.56;100.00;61375.16;4970973;28;20404;-33
2022/03/25 01:35:52;;;;;;;2.53;2.08;;;;;;;-148.56;100.00;61375.16;4963478;28;20023;-34
2022/03/25 01:38:17;;;;;;;2.35;2.13;;;;;;;-148.56;100.00;61375.16;4957404;28;20058;-34
2022/03/25 01:40:43;;;;;;;2.85;2.13;;;;;;;-148.56;100.00;61375.16;4965347;28;20085;-33
2022/03/25 01:43:08;;;;;;;2.67;2.15;;;;;;;-148.56;100.00;61375.16;4970793;28;20042;-36
2022/03/25 01:45:35;;;;;;;3.38;2.00;;;;;;;-148.56;100.00;61375.16;4969654;28;20687;-34
2022/03/25 01:48:03;;;;;;;3.05;1.77;;;;;;;-148.56;100.00;61375.16;4970714;28;20030;-35
2022/03/25 01:50:28;;;;;;;3.78;2.30;;;;;;;-148.56;100.00;61375.16;4969309;28;20022;-32
2022/03/25 01:52:53;;;;;;;2.85;1.80;;;;;;;-148.56;100.00;61375.16;4970093;28;20952;-31
2022/03/25 01:55:21;;;;;;;3.15;2.03;;;;;;;-148.56;100.00;61375.16;4968372;28;20042;-35
2022/03/25 01:57:47;;;;;;;4.00;1.80;;;;;;;-148.56;100.00;61375.16;4970191;28;20023;-31
2022/03/25 02:00:13;;;;;;;3.67;2.10;;;;;;;-148.56;100.00;61375.16;4949986;28;20729;-33
2022/03/25 02:02:39;;;;;;;7.20;2.13;;;;;;;-148.56;100.00;61375.16;4970510;28;20958;-36
2022/03/25 02:05:05;;;;;;;3.80;2.13;;;;;;;-148.56;100.00;61375.16;4968882;28;20034;-30
2022/03/25 02:07:31;;;;;;;2.65;1.95;;;;;;;-148.56;100.00;61375.16;4969073;28;20037;-32
2022/03/25 02:09:56;;;;;;;3.38;2.13;;;;;;;-148.56;100.00;61375.16;4970931;28;20052;-34
2022/03/25 02:12:22;;;;;;;4.72;1.90;;;;;;;-148.56;100.00;61375.16;4968488;28;20061;-32
2022/03/25 02:14:47;;;;;;;5.03;2.17;;;;;;;-148.56;100.00;61375.16;4950431;28;20019;-33
2022/03/25 02:17:13;;;;;;;2.70;1.80;;;;;;;-148.56;100.00;61375.16;4968557;28;20520;-30
2022/03/25 02:19:38;;;;;;;2.70;1.98;;;;;;;-148.56;100.00;61375.16;4967149;28;20567;-35
2022/03/25 02:22:04;;;;;;;2.33;1.90;;;;;;;-148.56;100.00;61375.16;4970087;28;20112;-34
2022/03/25 02:24:30;;;;;;;2.60;1.90;;;;;;;-148.56;100.00;61375.16;4970315;28;20038;-33
2022/03/25 02:26:55;;;;;;;2.35;1.92;;;;;;;-148.56;100.00;61375.16;4965739;28;20037;-35
2022/03/25 02:29:21;;;;;;;3.03;1.90;;;;;;;-148.56;100.00;61375.16;4969291;28;20037;-34
2022/03/25 02:31:46;;;;;;;2.53;1.90;;;;;;;-148.56;100.00;61375.16;4970554;28;20030;-30
2022/03/25 02:34:11;;;;;;;1.77;1.42;;;;;;;-148.56;100.00;61375.16;4969028;28;20038;-33
2022/03/25 02:36:38;;;;;;;2.97;2.00;;;;;;;-148.56;100.00;61375.16;4970800;28;20030;-31
2022/03/25 02:39:04;;;;;;;2.33;2.00;;;;;;;-148.56;100.00;61375.16;4968768;28;20203;-34
2022/03/25 02:41:29;;;;;;;3.08;2.08;;;;;;;-148.56;100.00;61375.16;4967971;28;20031;-35
2022/03/25 02:43:55;;;;;;;2.95;1.98;;;;;;;-148.56;100.00;61375.16;4968912;28;20050;-34
2022/03/25 02:46:20;;;;;;;2.55;2.00;;;;;;;-148.56;100.00;61375.16;4970018;28;20034;-32
2022/03/25 02:48:46;;;;;;;2.28;1.83;;;;;;;-148.56;100.00;61375.16;4967192;28;20770;-34
2022/03/25 02:51:11;;;;;;;2.10;1.90;;;;;;;-148.56;100.00;61375.16;4971220;28;20029;-29
2022/03/25 02:53:36;;;;;;;2.50;1.80;;;;;;;-148.56;100.00;61375.16;4967261;28;20135;-32
2022/03/25 02:56:02;;;;;;;3.55;2.08;;;;;;;-148.56;100.00;61375.16;4964233;28;20059;-31
2022/03/25 02:58:27;;;;;;;3.47;1.80;;;;;;;-148.56;100.00;61375.16;4970989;28;20066;-30
2022/03/25 03:00:53;;;;;;;2.63;1.95;;;;;;;-148.56;100.00;61375.16;4953044;28;20608;-34
2022/03/25 03:03:19;;;;;;;2.28;1.88;;;;;;;-148.56;100.00;61375.16;4973145;28;20046;-34
2022/03/25 03:05:44;;;;;;;2.70;2.00;;;;;;;-148.56;100.00;61375.16;4971829;28;20516;-33
2022/03/25 03:08:09;;;;;;;2.47;2.08;;;;;;;-148.56;100.00;61375.16;4971480;28;20125;-30
2022/03/25 03:10:35;;;;;;;2.28;1.80;;;;;;;-148.56;100.00;61375.16;4974122;28;20031;-31
2022/03/25 03:13:02;;;;;;;2.38;1.70;;;;;;;-148.56;100.00;61375.16;4972164;28;20038;-32
2022/03/25 03:15:27;;;;;;;3.00;1.83;;;;;;;-148.56;100.00;61375.16;4971182;28;20062;-32
2022/03/25 03:17:52;;;;;;;3.58;2.03;;;;;;;-148.56;100.00;61375.16;4969072;28;20031;-30
2022/03/25 03:20:20;;;;;;;1.88;1.70;;;;;;;-148.56;100.00;61375.16;4972532;28;20022;-32
2022/03/25 03:22:45;;;;;;;3.63;1.80;;;;;;;-148.56;100.00;61375.16;4974292;28;20053;-34
2022/03/25 03:25:11;;;;;;;2.75;1.77;;;;;;;-148.56;100.00;61375.16;4971088;28;20053;-29
2022/03/25 03:27:37;;;;;;;3.33;2.00;;;;;;;-148.56;100.00;61375.16;4972769;28;20053;-32
2022/03/25 03:30:04;;;;;;;2.15;1.88;;;;;;;-148.56;100.00;61375.16;4972931;28;20037;-34
2022/03/25 03:32:29;;;;;;;3.22;1.77;;;;;;;-148.56;100.00;61375.16;4972853;28;20560;-32
2022/03/25 03:34:55;;;;;;;2.67;1.83;;;;;;;-148.56;100.00;61375.16;4970952;28;20042;-32
2022/03/25 03:37:21;;;;;;;2.53;2.00;;;;;;;-148.56;100.00;61375.16;4953795;28;20128;-30
2022/03/25 03:39:47;;;;;;;3.75;1.90;;;;;;;-148.56;100.00;61375.16;4971521;28;20074;-34
2022/03/25 03:42:12;;;;;;;2.03;1.75;;;;;;;-148.56;100.00;61375.16;4971018;28;20681;-34
2022/03/25 03:44:38;;;;;;;2.30;1.80;;;;;;;-148.56;100.00;61375.16;4970554;28;20505;-30
2022/03/25 03:47:06;;;;;;;1.60;1.50;;;;;;;-148.56;100.00;61375.16;4972033;28;20034;-36
2022/03/25 03:49:32;;;;;;;2.40;1.48;;;;;;;-148.56;100.00;61375.16;4970716;28;20086;-30
2022/03/25 03:51:57;;;;;;;2.08;1.88;;;;;;;-148.56;100.00;61375.16;4973986;28;20612;-30
2022/03/25 03:54:23;;;;;;;2.05;1.85;;;;;;;-148.56;100.00;61375.16;4970581;28;20027;-34
2022/03/25 03:56:48;;;;;;;2.17;1.63;;;;;;;-148.56;100.00;61375.16;4970721;28;20026;-35
2022/03/25 03:59:13;;;;;;;2.08;1.77;;;;;;;-148.56;100.00;61375.16;4972610;28;20041;-30
2022/03/25 04:01:39;;;;;;;2.88;1.70;;;;;;;-148.56;100.00;61375.16;4971406;28;20533;-31
2022/03/25 04:04:05;;;;;;;2.28;1.80;;;;;;;-148.56;100.00;61375.16;4970207;28;20045;-31
2022/03/25 04:06:31;;;;;;;2.58;1.80;;;;;;;-148.56;100.00;61375.16;4970785;28;20626;-32
2022/03/25 04:08:57;;;;;;;1.90;1.60;;;;;;;-148.56;100.00;61375.16;4973937;28;20037;-33
2022/03/25 04:11:22;;;;;;;2.03;1.70;;;;;;;-148.56;100.00;61375.16;4972154;28;20026;-35
2022/03/25 04:13:48;;;;;;;1.70;1.60;;;;;;;-148.56;100.00;61375.16;4971763;28;20037;-33
2022/03/25 04:16:13;;;;;;;1.95;1.50;;;;;;;-148.56;100.00;61375.16;4970660;28;20085;-31
2022/03/25 04:18:39;;;;;;;2.10;1.70;;;;;;;-148.56;100.00;61375.16;4956332;28;20023;-32
2022/03/25 04:21:05;;;;;;;1.98;1.58;;;;;;;-148.56;100.00;61375.16;4971025;28;20090;-33
2022/03/25 04:23:31;;;;;;;3.08;1.73;;;;;;;-148.56;100.00;61375.16;4973563;28;20046;-35
2022/03/25 04:25:56;;;;;;;1.92;1.40;;;;;;;-148.56;100.00;61375.16;4966611;28;20045;-31
2022/03/25 04:28:22;;;;;;;2.15;1.58;;;;;;;-148.56;100.00;61375.16;4970845;28;20038;-32
2022/03/25 04:30:47;;;;;;;2.38;1.70;;;;;;;-148.56;100.00;61375.16;4970661;28;20397;-35
2022/03/25 04:33:13;;;;;;;2.08;1.73;;;;;;;-148.56;100.00;61375.16;4969506;28;20114;-33
2022/03/25 04:35:38;;;;;;;2.10;1.70;;;;;;;-148.56;100.00;61375.16;4968266;28;20053;-30
2022/03/25 04:38:04;;;;;;;2.33;1.58;;;;;;;-148.56;100.00;61375.16;4972475;28;20531;-33
2022/03/25 04:40:29;;;;;;;2.63;1.92;;;;;;;-148.56;100.00;61375.16;4970576;28;20069;-32
2022/03/25 04:42:56;;;;;;;2.58;1.90;;;;;;;-148.56;100.00;61375.16;4961206;28;20027;-36
2022/03/25 04:45:22;;;;;;;2.38;1.63;;;;;;;-148.56;100.00;61375.16;4964715;28;20042;-34
2022/03/25 04:47:47;;;;;;;1.75;1.48;;;;;;;-148.56;100.00;61375.16;4947744;28;20602;-34
2022/03/25 04:50:12;;;;;;;2.30;1.52;;;;;;;-148.56;100.00;61375.16;4952586;28;20101;-34
2022/03/25 04:52:38;;;;;;;2.22;1.70;;;;;;;-148.56;100.00;61375.16;4951867;28;20034;-33
2022/03/25 04:55:04;;;;;;;1.77;1.52;;;;;;;-148.56;100.00;61375.16;4953140;28;20145;-33
2022/03/25 04:57:30;;;;;;;2.22;1.60;;;;;;;-148.56;100.00;61375.16;4951275;28;20045;-31
2022/03/25 04:59:55;;;;;;;2.10;1.50;;;;;;;-148.56;100.00;61375.16;4955170;28;20497;-34
2022/03/25 05:02:21;;;;;;;2.10;1.65;;;;;;;-148.56;100.00;61375.16;4952570;28;20073;-30
2022/03/25 05:04:47;;;;;;;3.28;1.40;;;;;;;-148.56;100.00;61375.16;4966522;28;20022;-35
2022/03/25 05:07:15;;;;;;;2.15;1.55;;;;;;;-148.56;100.00;61375.16;4970102;28;20029;-30
2022/03/25 05:09:41;;;;;;;2.30;1.80;;;;;;;-148.56;100.00;61375.16;4967661;28;20243;-29
2022/03/25 05:12:07;;;;;;;1.95;1.50;;;;;;;-148.56;100.00;61375.16;4966474;28;20452;-33
2022/03/25 05:14:34;;;;;;;1.85;1.48;;;;;;;-148.56;100.00;61375.16;4966858;28;20061;-30
2022/03/25 05:16:59;;;;;;;2.03;1.40;;;;;;;-148.56;100.00;61375.16;4968769;28;20030;-31
2022/03/25 05:19:25;;;;;;;1.55;1.45;;;;;;;-148.56;100.00;61375.16;4968303;28;20043;-31
2022/03/25 05:21:50;;;;;;;1.98;1.60;;;;;;;-148.56;100.00;61375.16;4968602;28;20440;-33
2022/03/25 05:24:15;;;;;;;2.00;1.60;;;;;;;-148.56;100.00;61375.16;4965919;28;20019;-35
2022/03/25 05:26:41;;;;;;;2.00;1.70;;;;;;;-148.56;100.00;61375.16;4966224;28;20026;-32
2022/03/25 05:29:06;;;;;;;2.05;1.60;;;;;;;-148.56;100.00;61375.16;4966815;28;20093;-33
2022/03/25 05:31:32;;;;;;;2.15;1.50;;;;;;;-148.56;100.00;61375.16;4964930;28;20034;-35
2022/03/25 05:33:57;;;;;;;2.33;1.50;;;;;;;-148.56;100.00;61375.16;4970216;28;20030;-33
2022/03/25 05:36:23;;;;;;;6.38;3.80;;;;;;;-148.56;100.00;61375.16;4965404;28;20934;-28
2022/03/25 05:38:51;;;;;;;2.72;2.25;;;;;;;-148.56;100.00;61375.16;4963636;28;20996;-33
2022/03/25 05:41:16;;;;;;;4.22;1.90;;;;;;;-148.56;100.00;61375.16;4967381;28;20019;-30
2022/03/25 05:43:42;;;;;;;2.03;1.80;;;;;;;-148.56;100.00;61375.16;4968071;28;20089;-34
2022/03/25 05:46:08;;;;;;;3.00;1.80;;;;;;;-148.56;100.00;61375.16;4968627;28;20030;-30
2022/03/25 05:48:33;;;;;;;3.80;1.77;;;;;;;-148.56;100.00;61375.16;4963338;28;20034;-32
2022/03/25 05:50:59;;;;;;;3.22;1.83;;;;;;;-148.56;100.00;61375.16;4965681;28;20061;-34
2022/03/25 05:53:24;;;;;;;2.88;1.95;;;;;;;-148.56;100.00;61375.16;4966338;28;20046;-31
2022/03/25 05:55:50;;;;;;;2.65;1.52;;;;;;;-148.56;100.00;61375.16;4967040;28;20027;-31
2022/03/25 05:58:15;;;;;;;2.00;1.50;;;;;;;-148.56;100.00;61375.16;4964687;28;20042;-33
2022/03/25 06:00:41;;;;;;;3.42;1.83;;;;;;;-148.56;100.00;61375.16;4965258;28;20030;-30
2022/03/25 06:03:06;;;;;;;2.63;1.75;;;;;;;-148.56;100.00;61375.16;4945671;28;20418;-33
2022/03/25 06:05:32;;;;;;;2.13;1.55;;;;;;;-148.56;100.00;61375.16;4926782;28;20125;-30
2022/03/25 06:07:57;;;;;;;2.15;1.52;;;;;;;-148.56;100.00;61375.16;4930561;28;20030;-29
2022/03/25 06:10:23;;;;;;;2.03;1.67;;;;;;;-148.56;100.00;61375.16;4932335;28;20030;-27
2022/03/25 06:12:48;;;;;;;1.95;1.52;;;;;;;-148.56;100.00;61375.16;4935713;28;20455;-35
2022/03/25 06:15:14;;;;;;;2.17;1.60;;;;;;;-148.56;100.00;61375.16;4939617;28;20552;-34
2022/03/25 06:17:46;;;;;;;1.90;1.52;;;;;;;-148.56;100.00;61375.16;4934660;28;20698;-34
2022/03/25 06:20:15;;;;;;;2.17;1.70;;;;;;;-148.56;100.00;61375.16;4922210;28;20525;-31
2022/03/25 06:22:41;;;;;;;2.20;1.75;;;;;;;-148.56;100.00;61375.16;4932397;28;21494;-35
2022/03/25 06:25:09;;;;;;;3.97;1.70;;;;;;;-148.56;100.00;61375.16;4938283;28;20054;-27
2022/03/25 06:27:34;;;;;;;4.18;1.80;;;;;;;-148.56;100.00;61375.16;4939294;28;20591;-28
2022/03/25 06:29:59;;;;;;;2.20;1.63;;;;;;;-148.56;100.00;61375.16;4938362;28;20058;-29
2022/03/25 06:32:25;;;;;;;1.95;1.70;;;;;;;-148.56;100.00;61375.16;4929032;28;20038;-30
2022/03/25 06:34:50;;;;;;;2.13;1.60;;;;;;;-148.56;100.00;61375.16;4924651;28;20046;-29
2022/03/25 06:37:16;;;;;;;3.00;1.85;;;;;;;-148.56;100.00;61375.16;4930424;28;20030;-30
2022/03/25 06:39:41;;;;;;;2.00;1.70;;;;;;;-148.56;100.00;61375.16;4939419;28;20284;-28
2022/03/25 06:42:06;;;;;;;2.72;1.73;;;;;;;-148.56;100.00;61375.16;4925512;28;20042;-31
2022/03/25 06:44:32;;;;;;;1.50;1.40;;;;;;;-148.56;100.00;61375.16;4925343;28;20027;-34
2022/03/25 06:46:57;;;;;;;2.30;1.70;;;;;;;-148.56;100.00;61375.16;4924243;28;20035;-31
2022/03/25 06:49:23;;;;;;;2.08;1.60;;;;;;;-148.56;100.00;61375.16;4928237;28;20035;-27
2022/03/25 06:51:49;;;;;;;6.38;3.38;;;;;;;-148.56;100.00;61375.16;4932253;28;20026;-34
2022/03/25 06:54:15;;;;;;;6.57;2.20;;;;;;;-148.56;100.00;61375.16;4936793;28;20045;-32
2022/03/25 06:56:40;;;;;;;5.05;1.85;;;;;;;-148.56;100.00;61375.16;4938791;28;20030;-28
2022/03/25 06:59:06;;;;;;;2.45;1.98;;;;;;;-148.56;100.00;61375.16;4934557;28;20035;-26
2022/03/25 07:01:32;;;;;;;2.78;1.55;;;;;;;-148.56;100.00;61375.16;4928419;28;20027;-29
2022/03/25 07:03:58;;;;;;;3.45;1.80;;;;;;;-148.56;100.00;61375.16;4956720;28;20070;-35
2022/03/25 07:06:24;;;;;;;2.00;1.60;;;;;;;-148.56;100.00;61375.16;4967683;28;21142;-31
2022/03/25 07:08:55;;;;;;;2.85;2.05;;;;;;;-148.56;100.00;61375.16;4963875;28;20509;-31
2022/03/25 07:11:21;;;;;;;1.88;1.50;;;;;;;-148.56;100.00;61375.16;4947807;28;20118;-33
2022/03/25 07:13:47;;;;;;;2.10;1.73;;;;;;;-148.56;100.00;61375.16;4964560;28;20038;-34
2022/03/25 07:16:12;;;;;;;1.58;1.40;;;;;;;-148.56;100.00;61375.16;4946753;28;20030;-34
2022/03/25 07:18:37;;;;;;;2.20;1.60;;;;;;;-148.56;100.00;61375.16;4963877;28;20907;-32
2022/03/25 07:21:04;;;;;;;4.88;1.80;;;;;;;-148.56;100.00;61375.16;4964599;28;20041;-33
2022/03/25 07:23:30;;;;;;;2.65;1.75;;;;;;;-148.56;100.00;61375.16;4965594;28;20101;-31
2022/03/25 07:25:55;;;;;;;3.58;2.10;;;;;;;-148.56;100.00;61375.16;4956383;28;20037;-31
2022/03/25 07:28:20;;;;;;;3.70;2.40;;;;;;;-148.56;100.00;61375.16;4964826;28;20061;-30
2022/03/25 07:30:46;;;;;;;4.15;2.20;;;;;;;-148.56;100.00;61375.16;4964555;28;20023;-33
2022/03/25 07:33:11;;;;;;;11.15;3.10;;;;;;;-148.56;100.00;61375.16;4963614;28;22191;-31
2022/03/25 07:35:37;;;;;;;3.90;2.40;;;;;;;-148.56;100.00;61375.16;4941621;28;20049;-33
2022/03/25 07:38:02;;;;;;;11.93;3.20;;;;;;;-148.56;100.00;61375.16;4964817;28;20022;-31
2022/03/25 07:40:28;;;;;;;8.48;3.00;;;;;;;-148.56;100.00;61375.16;4965669;28;20039;-37
2022/03/25 07:42:53;;;;;;;9.85;3.50;;;;;;;-148.56;100.00;61375.16;4957325;28;20863;-32
2022/03/25 07:45:19;;;;;;;6.32;3.28;;;;;;;-148.56;100.00;61375.16;4952544;28;20668;-31
2022/03/25 07:47:46;;;;;;;9.43;3.40;;;;;;;-148.56;100.00;61375.16;4958451;28;20030;-32
2022/03/25 07:50:12;;;;;;;7.60;3.20;;;;;;;-148.56;100.00;61375.16;4967186;28;20118;-31
2022/03/25 07:52:37;;;;;;;7.03;3.53;;;;;;;-148.56;100.00;61375.16;4967653;28;20030;-34
2022/03/25 07:55:04;;;;;;;9.80;3.92;;;;;;;-148.56;100.00;61375.16;4969921;28;20045;-31
2022/03/25 07:57:29;;;;;;;7.68;3.60;;;;;;;-148.56;100.00;61375.16;4969188;28;20046;-35
2022/03/25 07:59:55;;;;;;;9.13;3.90;;;;;;;-148.56;100.00;61375.16;4971565;28;20034;-31
2022/03/25 08:02:20;;;;;;;9.52;3.80;;;;;;;-148.56;100.00;61375.16;4966148;28;20637;-31
2022/03/25 08:04:46;;;;;;;7.20;3.63;;;;;;;-148.56;100.00;61375.16;4968788;28;20110;-30
2022/03/25 08:07:11;;;;;;;12.30;4.10;;;;;;;-148.56;100.00;61375.16;4968727;28;20057;-33
2022/03/25 08:09:37;;;;;;;11.50;4.50;;;;;;;-148.56;100.00;61375.16;4970442;28;20023;-32
2022/03/25 08:12:02;;;;;;;10.45;4.88;;;;;;;-148.56;100.00;61375.16;4970485;28;20035;-32
2022/03/25 08:14:28;;;;;;;10.07;4.10;;;;;;;-148.56;100.00;61375.16;4969395;28;20039;-33
2022/03/25 08:16:53;;;;;;;10.23;4.72;;;;;;;-148.56;100.00;61375.16;4969146;28;20552;-32
2022/03/25 08:19:19;;;;;;;11.50;5.53;;;;;;;-148.56;100.00;61375.16;4968462;28;20603;-34
2022/03/25 08:21:44;;;;;;;12.75;6.00;;;;;;;-148.56;100.00;61375.16;4969228;28;20042;-35
2022/03/25 08:29:38;;;;;;;11.32;5.32;;;;;;;-148.56;100.00;61375.16;4967633;28;20084;-34
2022/03/25 08:32:04;;;;;;;10.60;6.45;;;;;;;-148.56;100.00;61375.16;4968036;28;20680;-35
2022/03/25 08:34:29;;;;;;;12.85;6.15;;;;;;;-148.56;100.00;61375.16;4972879;28;20038;-32
2022/03/25 08:36:55;;;;;;;11.55;4.72;;;;;;;-148.56;100.00;61375.16;4970997;28;20038;-36
2022/03/25 08:39:22;;;;;;;10.95;4.45;;;;;;;-148.56;100.00;61375.16;4973744;28;20544;-34
2022/03/25 08:41:48;;;;;;;16.30;7.68;;;;;;;-148.56;100.00;61375.16;4967561;28;20477;-32
2022/03/25 08:44:14;;;;;;;12.45;4.63;;;;;;;-148.56;100.00;61375.16;4952707;28;20046;-32
2022/03/25 08:46:40;;;;;;;9.90;4.65;;;;;;;-148.56;100.00;61375.16;4969953;28;20042;-33
2022/03/25 08:49:06;;;;;;;8.27;3.80;;;;;;;-148.56;100.00;61375.16;4970753;28;20052;-32
2022/03/25 08:51:31;;;;;;;7.47;3.72;;;;;;;-148.56;100.00;61375.16;4970650;28;20027;-35
2022/03/25 08:53:57;;;;;;;8.43;3.80;;;;;;;-148.56;100.00;61375.16;4970823;28;20485;-33
2022/03/25 08:56:27;;;;;;;8.07;4.03;;;;;;;-148.56;100.00;61375.16;4973238;28;20031;-34
2022/03/25 08:58:54;;;;;;;8.38;3.58;;;;;;;-148.56;100.00;61375.16;4969923;28;20031;-35
2022/03/25 09:01:20;;;;;;;8.23;3.80;;;;;;;-148.56;100.00;61375.16;4968812;28;20038;-31
2022/03/25 09:03:46;;;;;;;8.25;3.70;;;;;;;-148.56;100.00;61375.16;4968551;28;20041;-31
2022/03/25 09:06:12;;;;;;;7.65;3.58;;;;;;;-148.56;100.00;61375.16;4967299;28;20018;-34
2022/03/25 09:08:38;;;;;;;7.85;3.53;;;;;;;-148.56;100.00;61375.16;4953210;28;20027;-32
2022/03/25 09:11:03;;;;;;;6.22;3.45;;;;;;;-148.56;100.00;61375.16;4959498;28;20178;-32
2022/03/25 09:13:28;;;;;;;9.25;3.50;;;;;;;-148.56;100.00;61375.16;4965832;28;20394;-30
2022/03/25 09:15:54;;;;;;;11.65;5.72;;;;;;;-148.56;100.00;61375.16;4966754;28;20027;-33
2022/03/25 09:18:19;;;;;;;41.08;11.68;;;;;;;-148.56;100.00;61375.16;4965022;28;20134;-26
2022/03/25 09:20:45;;;;;;;35.92;20.33;;;;;;;-148.56;100.00;61375.16;4967299;28;20034;-34
2022/03/25 09:23:10;;;;;;;26.45;17.90;;;;;;;-148.56;100.00;61375.16;4968839;28;20046;-36
2022/03/25 09:25:35;;;;;;;32.60;22.00;;;;;;;-148.56;100.00;61375.16;4960500;28;20022;-36
2022/03/25 09:28:01;;;;;;;36.65;17.95;;;;;;;-148.56;100.00;61375.16;4959768;28;20026;-34
2022/03/25 09:30:27;;;;;;;27.88;18.40;;;;;;;-148.56;100.00;61375.16;4963608;28;20039;-36
2022/03/25 09:32:52;;;;;;;28.77;20.38;;;;;;;-148.56;100.00;61375.16;4957216;28;20042;-34
2022/03/25 09:35:18;;;;;;;25.90;20.48;;;;;;;-148.56;100.00;61375.16;4963886;28;20485;-30
2022/03/25 09:37:44;;;;;;;26.30;19.85;;;;;;;-148.56;100.00;61375.16;4970475;28;20045;-32
2022/03/25 09:40:23;;;;;;;31.70;20.20;;;;;;;-148.56;100.00;61375.16;4970571;28;20026;-33
2022/03/25 09:42:51;;;;;;;25.27;18.25;;;;;;;-148.56;100.00;61375.16;4969224;28;20062;-33
2022/03/25 09:45:16;;;;;;;26.35;18.85;;;;;;;-148.56;100.00;61375.16;4966458;28;20023;-33
2022/03/25 09:47:43;;;;;;;18.48;12.90;;;;;;;-148.56;100.00;61375.16;4968568;28;20033;-32
2022/03/25 09:50:12;;;;;;;26.08;16.63;;;;;;;-148.56;100.00;61375.16;4967255;28;20031;-31
2022/03/25 09:52:37;;;;;;;19.83;12.50;;;;;;;-148.56;100.00;61375.16;4950174;28;20027;-33
2022/03/25 09:55:03;;;;;;;15.75;10.27;;;;;;;-148.56;100.00;61375.16;4951446;28;20034;-30
2022/03/25 09:57:29;;;;;;;13.00;8.93;;;;;;;-148.56;100.00;61375.16;4966901;28;20117;-32
2022/03/25 09:59:55;;;;;;;14.05;8.65;;;;;;;-148.56;100.00;61375.16;4968414;28;20034;-31
2022/03/25 10:02:21;;;;;;;13.75;7.78;;;;;;;-148.56;100.00;61375.16;4965483;28;20034;-29
2022/03/25 10:04:48;;;;;;;15.18;7.60;;;;;;;-148.56;100.00;61375.16;4963658;28;20037;-32
2022/03/25 10:07:25;;;;;;;19.88;7.82;;;;;;;-148.56;100.00;61375.16;4960594;28;20030;-28
2022/03/25 10:10:08;;;;;;;12.65;7.00;;;;;;;-148.56;100.00;61375.16;4969154;28;20121;-31
2022/03/25 10:12:34;;;;;;;17.63;7.13;;;;;;;-148.56;100.00;61375.16;4965072;28;20029;-30
2022/03/25 10:15:21;;;;;;;17.25;6.72;;;;;;;-148.56;100.00;61375.16;4968740;28;20026;-29
2022/03/25 10:17:53;;;;;;;17.58;6.80;;;;;;;-148.56;100.00;61375.16;4967586;28;20053;-33
2022/03/25 10:20:22;;;;;;;22.98;7.32;;;;;;;-148.56;100.00;61375.16;4967593;28;20023;-34
2022/03/25 10:23:07;;;;;;;17.10;6.68;;;;;;;-148.56;100.00;61375.16;4967795;28;20536;-32
2022/03/25 10:25:47;;;;;;;19.55;6.80;;;;;;;-148.56;100.00;61375.16;4968084;28;20533;-30
2022/03/25 10:28:18;;;;;;;19.17;6.25;;;;;;;-148.56;100.00;61375.16;4967802;28;20822;-32
2022/03/25 10:30:43;;;;;;;20.50;6.97;;;;;;;-148.56;100.00;61375.16;4969275;28;20050;-30
2022/03/25 10:33:22;;;;;;;15.93;6.38;;;;;;;-148.56;100.00;61375.16;4969724;28;20034;-25
2022/03/25 10:35:52;;;;;;;17.40;6.15;;;;;;;-148.56;100.00;61375.16;4970247;28;20030;-32
2022/03/25 10:38:17;;;;;;;23.90;6.78;;;;;;;-148.56;100.00;61375.16;4949297;28;20029;-35
2022/03/25 10:40:52;;;;;;;18.25;6.22;;;;;;;-148.56;100.00;61375.16;4968865;28;20034;-34
2022/03/25 10:43:18;;;;;;;16.42;6.53;;;;;;;-148.56;100.00;61375.16;4953348;28;20035;-31
2022/03/25 10:45:45;;;;;;;18.58;6.38;;;;;;;-148.56;100.00;61375.16;4968051;28;20031;-31
2022/03/25 10:48:21;;;;;;;17.60;6.63;;;;;;;-148.56;100.00;61375.16;4968926;28;20534;-31
2022/03/25 10:51:13;;;;;;;17.98;6.15;;;;;;;-148.56;100.00;61375.16;4960226;28;20030;-33
2022/03/25 10:53:38;;;;;;;12.50;5.93;;;;;;;-148.56;100.00;61375.16;4968807;28;20051;-33
2022/03/25 10:56:10;;;;;;;23.20;6.20;;;;;;;-148.56;100.00;61375.16;4968537;28;20584;-32
2022/03/25 10:58:36;;;;;;;18.85;5.85;;;;;;;-148.56;100.00;61375.16;4970110;28;20056;-33
2022/03/25 11:01:01;;;;;;;18.85;5.78;;;;;;;-148.56;100.00;61375.16;4967097;28;20046;-32
2022/03/25 11:03:27;;;;;;;14.02;5.10;;;;;;;-148.56;100.00;61375.16;4968607;28;20061;-32
2022/03/25 11:05:53;;;;;;;13.18;5.93;;;;;;;-148.56;100.00;61375.16;4946857;28;20711;-32
2022/03/25 11:08:18;;;;;;;15.88;5.40;;;;;;;-148.56;100.00;61375.16;4966463;28;20030;-33